CA-0455 weather

Brisbane
Ontario, Canada

Public forecast

Using degrees Celsius for public forecast. Weather courtesy of forecast.io.

Closest aviation weather report (METAR) to Brisbane

Closest report is Lester B. Pearson International Airport, 20.0 nm (37.1 km) E. Retrieved 2019/10/22 09:00 UTC (44 minutes ago):

CYYZ 220900Z 13007G16KT 15SM -RA SCT026 BKN060 OVC090 13/13 A2973 RMK SC4SC3AC1 SLP070 DENSITY ALT 800FT

Closest aviation forecast (TAF) to Brisbane

Closest forecast is Lester B. Pearson International Airport, 20.0 nm (37.1 km) E. Retrieved 2019/10/22 09:42 UTC (2 minutes ago):

TAF CYYZ 220839Z 2209/2312 12008KT P6SM -RA BKN050 OVC090 TEMPO 2209/2210 3SM -RA BR SCT008 BKN020 OVC050 FM221000 15012G22KT 6SM -RA BR OVC012 TEMPO 2210/2212 3SM -RA BR OVC006 PROB40 2210/2212 2SM -RA BR OVC003 FM221200 17015G25KT P6SM -SHRA OVC025 TEMPO 2212/2217 5SM -SHRA BR SCT006 OVC012 PROB30 2214/2217 21/2SM SHRA BR OVC006 FM221700 19012G22KT P6SM -SHRA OVC015 BECMG 2217/2219 23010G20KT FM222100 23015G25KT P6SM SCT015 BKN030 OVC130 FM230200 24015KT P6SM SCT020 BKN090 FM230600 24012KT P6SM OVC020 RMK NXT FCST BY 221200Z